createdAt,value
2019-05-26T00:01:45.283Z,11.40
2019-05-26T00:04:16.721Z,11.40
2019-05-26T00:06:47.452Z,11.40
2019-05-26T00:09:19.215Z,11.40
2019-05-26T00:12:08.951Z,11.60
2019-05-26T00:14:40.038Z,11.50
2019-05-26T00:17:11.467Z,11.50
2019-05-26T00:19:53.103Z,11.60
2019-05-26T00:22:24.401Z,11.70
2019-05-26T00:24:55.197Z,11.70
2019-05-26T00:27:26.334Z,11.70
2019-05-26T00:29:58.068Z,11.70
2019-05-26T00:32:37.494Z,11.70
2019-05-26T00:35:09.091Z,11.70
2019-05-26T01:03:01.657Z,11.50
2019-05-26T01:05:32.800Z,11.50
2019-05-26T01:08:06.609Z,11.50
2019-05-26T01:10:35.991Z,11.50
2019-05-26T01:13:07.006Z,11.50
2019-05-26T01:15:37.881Z,11.60
2019-05-26T01:18:09.221Z,11.60
2019-05-26T01:20:40.888Z,11.60
2019-05-26T01:23:13.592Z,11.70
2019-05-26T01:25:45.298Z,11.70
2019-05-26T01:28:17.075Z,11.80
2019-05-26T01:30:51.396Z,11.80
2019-05-26T01:33:24.978Z,11.90
2019-05-26T01:35:56.515Z,11.90
2019-05-26T01:38:27.670Z,11.90
2019-05-26T01:40:58.586Z,11.90
2019-05-26T01:43:29.993Z,12.00
2019-05-26T01:46:00.970Z,11.90
2019-05-26T01:48:32.267Z,12.00
2019-05-26T01:51:03.611Z,12.00
2019-05-26T01:53:34.663Z,12.00
2019-05-26T01:56:08.131Z,12.00
2019-05-26T01:58:39.811Z,12.00
2019-05-26T02:01:11.789Z,12.10
2019-05-26T02:03:43.760Z,12.10
2019-05-26T02:06:15.074Z,12.10
2019-05-26T02:08:46.522Z,12.10
2019-05-26T02:11:19.015Z,12.20
2019-05-26T02:13:50.571Z,12.10
2019-05-26T02:16:21.281Z,12.10
2019-05-26T02:18:52.644Z,12.20
2019-05-26T02:21:23.544Z,12.20
2019-05-26T02:23:54.527Z,12.20
2019-05-26T02:26:25.528Z,12.20
2019-05-26T02:28:56.497Z,12.20
2019-05-26T02:31:27.923Z,12.20
2019-05-26T02:33:58.886Z,12.20
2019-05-26T02:36:30.273Z,12.20
2019-05-26T02:39:03.338Z,12.20
2019-05-26T02:41:34.468Z,12.20
2019-05-26T02:44:09.432Z,12.20
2019-05-26T02:46:40.090Z,12.20
2019-05-26T02:49:11.187Z,12.20
2019-05-26T02:51:42.717Z,12.20
2019-05-26T02:54:13.336Z,12.20
2019-05-26T02:56:45.064Z,12.30
2019-05-26T02:59:15.719Z,12.20
2019-05-26T03:02:02.047Z,12.20
2019-05-26T03:04:20.191Z,12.20
2019-05-26T03:06:52.724Z,12.20
2019-05-26T03:09:30.693Z,12.20
2019-05-26T03:12:03.697Z,12.10
2019-05-26T03:14:36.377Z,12.10
2019-05-26T03:17:07.685Z,12.10
2019-05-26T03:19:39.435Z,12.20
2019-05-26T03:22:10.481Z,12.20
2019-05-26T03:24:44.404Z,12.20
2019-05-26T03:27:15.922Z,12.20
2019-05-26T03:29:46.979Z,12.20
2019-05-26T03:32:18.331Z,12.20
2019-05-26T03:34:49.496Z,12.10
2019-05-26T03:37:21.142Z,12.10
2019-05-26T03:40:00.453Z,12.10
2019-05-26T03:42:31.184Z,12.10
2019-05-26T03:45:01.566Z,12.00
2019-05-26T03:47:34.246Z,11.90
2019-05-26T03:50:05.948Z,11.90
2019-05-26T03:52:37.872Z,11.90
2019-05-26T03:55:16.893Z,11.90
2019-05-26T03:57:48.202Z,12.00
2019-05-26T04:00:19.226Z,12.00
2019-05-26T04:02:50.179Z,11.90
2019-05-26T04:05:21.444Z,11.90
2019-05-26T04:08:04.449Z,11.80
2019-05-26T04:10:32.783Z,11.90
2019-05-26T04:13:03.958Z,11.80
2019-05-26T04:15:34.656Z,11.80
2019-05-26T04:18:05.629Z,11.80
2019-05-26T04:20:36.983Z,11.90
2019-05-26T04:23:07.974Z,12.00
2019-05-26T04:25:38.284Z,12.10
2019-05-26T04:28:09.012Z,12.10
2019-05-26T04:30:39.972Z,12.10
2019-05-26T04:33:10.646Z,12.10
2019-05-26T04:35:48.973Z,12.10
2019-05-26T04:38:19.586Z,12.10
2019-05-26T04:40:50.306Z,12.10
2019-05-26T04:43:21.778Z,12.10
2019-05-26T04:46:00.274Z,12.10
2019-05-26T04:48:31.340Z,12.20
2019-05-26T04:51:01.773Z,12.10
2019-05-26T04:53:33.103Z,12.10
2019-05-26T04:56:04.380Z,12.00
2019-05-26T04:58:35.653Z,12.20
2019-05-26T05:01:07.164Z,12.30
2019-05-26T05:03:38.613Z,12.40
2019-05-26T05:06:10.439Z,12.50
2019-05-26T05:08:41.160Z,12.60
2019-05-26T05:11:17.357Z,12.80
2019-05-26T05:13:48.477Z,12.70
2019-05-26T05:16:19.846Z,12.70
2019-05-26T05:18:51.559Z,12.80
2019-05-26T05:21:22.537Z,12.90
2019-05-26T05:23:57.529Z,13.00
2019-05-26T05:26:28.923Z,13.10
2019-05-26T05:28:59.903Z,13.10
2019-05-26T05:31:30.611Z,13.00
2019-05-26T05:34:01.857Z,13.00
2019-05-26T05:36:32.889Z,13.20
2019-05-26T05:39:04.370Z,13.40
2019-05-26T05:41:35.889Z,13.50
2019-05-26T05:44:07.189Z,13.60
2019-05-26T05:46:38.388Z,13.50
2019-05-26T05:49:09.425Z,13.50
2019-05-26T05:51:41.092Z,13.40
2019-05-26T05:54:12.180Z,13.50
2019-05-26T05:57:00.322Z,13.60
2019-05-26T05:59:31.302Z,13.70
2019-05-26T06:02:02.006Z,14.00
2019-05-26T06:04:33.287Z,14.20
2019-05-26T06:07:16.529Z,14.10
2019-05-26T06:09:47.529Z,14.20
2019-05-26T06:12:18.486Z,14.30
2019-05-26T06:14:49.821Z,14.30
2019-05-26T06:17:20.162Z,14.60
2019-05-26T06:19:52.109Z,14.30
2019-05-26T06:22:23.774Z,14.10
2019-05-26T06:24:56.366Z,14.10
2019-05-26T06:27:37.789Z,14.00
2019-05-26T06:30:10.235Z,13.50
2019-05-26T06:32:41.943Z,13.40
2019-05-26T06:35:14.229Z,13.50
2019-05-26T06:37:46.107Z,13.90
2019-05-26T06:40:16.517Z,14.30
2019-05-26T06:42:49.920Z,14.50
2019-05-26T06:45:21.902Z,14.70
2019-05-26T06:48:12.695Z,14.80
2019-05-26T06:50:43.293Z,14.70
2019-05-26T06:53:15.371Z,14.70
2019-05-26T06:55:47.029Z,14.80
2019-05-26T06:58:18.274Z,14.80
2019-05-26T07:00:49.576Z,14.90
2019-05-26T07:03:31.011Z,15.20
2019-05-26T07:06:02.620Z,15.90
2019-05-26T07:08:33.720Z,16.70
2019-05-26T07:11:04.755Z,17.00
2019-05-26T07:13:36.091Z,17.20
2019-05-26T07:16:07.067Z,17.30
2019-05-26T07:18:38.166Z,17.20
2019-05-26T07:21:08.797Z,17.20
2019-05-26T07:23:40.153Z,18.20
2019-05-26T07:26:16.280Z,18.30
2019-05-26T07:28:46.919Z,18.70
2019-05-26T07:31:18.224Z,20.00
2019-05-26T07:33:49.694Z,21.00
2019-05-26T07:36:20.768Z,21.20
2019-05-26T07:38:51.659Z,20.70
2019-05-26T07:41:23.077Z,21.10
2019-05-26T07:43:54.085Z,22.30
2019-05-26T07:46:37.478Z,22.10
2019-05-26T07:49:08.493Z,22.40
2019-05-26T07:51:40.184Z,22.10
2019-05-26T07:54:24.586Z,23.10
2019-05-26T07:56:43.734Z,22.60
2019-05-26T07:59:15.407Z,22.20
2019-05-26T08:01:49.700Z,21.10
2019-05-26T08:04:20.690Z,21.60
2019-05-26T08:06:52.227Z,22.60
2019-05-26T08:09:23.876Z,23.70
2019-05-26T08:11:54.812Z,23.00
2019-05-26T08:14:25.468Z,22.00
2019-05-26T08:16:56.646Z,22.00
2019-05-26T08:19:28.024Z,21.80
2019-05-26T08:21:59.706Z,23.10
2019-05-26T08:24:30.468Z,22.70
2019-05-26T08:27:01.991Z,22.00
2019-05-26T08:29:32.620Z,22.10
2019-05-26T08:32:03.243Z,22.10
2019-05-26T08:34:34.606Z,22.40
2019-05-26T08:37:05.295Z,23.50
2019-05-26T08:39:40.639Z,24.40
2019-05-26T08:42:25.974Z,24.80
2019-05-26T08:44:44.697Z,25.60
2019-05-26T08:47:15.688Z,23.80
2019-05-26T08:49:46.694Z,23.00
2019-05-26T08:52:19.108Z,23.60
2019-05-26T08:54:50.457Z,23.20
2019-05-26T08:57:22.341Z,23.90
2019-05-26T08:59:52.993Z,23.70
2019-05-26T09:02:27.064Z,23.20
2019-05-26T09:04:58.042Z,23.80
2019-05-26T09:07:28.689Z,23.90
2019-05-26T09:10:00.540Z,24.10
2019-05-26T09:12:32.532Z,22.60
2019-05-26T09:15:03.539Z,22.00
2019-05-26T09:17:34.886Z,22.30
2019-05-26T09:20:06.337Z,22.00
2019-05-26T09:22:37.284Z,22.70
2019-05-26T09:25:10.360Z,23.40
2019-05-26T09:27:41.756Z,24.00
2019-05-26T09:30:13.568Z,24.30
2019-05-26T09:32:43.914Z,22.90
2019-05-26T09:35:14.721Z,23.90
2019-05-26T09:37:46.180Z,24.80
2019-05-26T09:40:17.605Z,24.00
2019-05-26T09:42:50.001Z,23.10
2019-05-26T09:45:21.039Z,22.60
2019-05-26T09:47:52.463Z,22.90
2019-05-26T09:50:24.467Z,23.30
2019-05-26T09:52:55.524Z,23.40
2019-05-26T09:55:26.010Z,22.80
2019-05-26T09:57:57.067Z,23.00
2019-05-26T10:00:27.802Z,24.10
2019-05-26T10:02:59.129Z,26.30
2019-05-26T10:05:31.107Z,27.70
2019-05-26T10:08:02.022Z,27.90
2019-05-26T10:10:33.035Z,28.30
2019-05-26T10:13:34.139Z,28.40
2019-05-26T10:16:04.770Z,26.80
2019-05-26T10:18:35.374Z,27.40
2019-05-26T10:21:06.129Z,27.50
2019-05-26T10:23:36.455Z,28.20
2019-05-26T10:26:07.461Z,27.90
2019-05-26T10:28:38.385Z,27.10
2019-05-26T10:31:09.373Z,28.70
2019-05-26T10:33:40.431Z,28.70
2019-05-26T10:36:11.155Z,28.60
2019-05-26T10:38:41.813Z,29.60
2019-05-26T10:41:12.817Z,28.40
2019-05-26T10:43:47.323Z,28.10
2019-05-26T10:46:16.336Z,27.40
2019-05-26T10:48:47.375Z,27.40
2019-05-26T10:51:18.606Z,27.80
2019-05-26T10:53:50.130Z,28.40
2019-05-26T10:56:21.221Z,28.50
2019-05-26T10:58:52.160Z,28.50
2019-05-26T11:01:22.590Z,29.50
2019-05-26T11:03:53.624Z,29.10
2019-05-26T11:06:24.351Z,30.10
2019-05-26T11:08:56.011Z,30.60
2019-05-26T11:11:27.057Z,27.90
2019-05-26T11:14:02.919Z,27.30
2019-05-26T11:16:32.111Z,27.60
2019-05-26T11:19:03.531Z,27.50
2019-05-26T11:21:34.594Z,28.90
2019-05-26T11:24:05.333Z,30.30
2019-05-26T11:26:36.346Z,30.10
2019-05-26T11:29:07.482Z,30.10
2019-05-26T11:31:38.669Z,30.40
2019-05-26T11:34:09.922Z,29.60
2019-05-26T11:36:40.634Z,29.30
2019-05-26T11:39:11.777Z,29.50
2019-05-26T11:41:42.478Z,29.30
2019-05-26T11:44:18.021Z,29.80
2019-05-26T11:46:46.773Z,29.70
2019-05-26T11:49:17.358Z,30.10
2019-05-26T11:51:48.121Z,31.80
2019-05-26T11:54:19.293Z,31.60
2019-05-26T11:56:51.261Z,31.50
2019-05-26T11:59:22.689Z,29.60
2019-05-26T12:01:53.898Z,29.60
2019-05-26T12:04:24.949Z,31.00
2019-05-26T12:06:55.997Z,31.60
2019-05-26T12:09:26.644Z,30.80
2019-05-26T12:11:58.075Z,31.40
2019-05-26T12:14:34.646Z,30.80
2019-05-26T12:17:03.046Z,31.10
2019-05-26T12:19:34.628Z,31.50
2019-05-26T12:22:12.590Z,30.60
2019-05-26T12:24:43.638Z,30.70
2019-05-26T12:27:14.353Z,31.00
2019-05-26T12:29:45.695Z,32.30
2019-05-26T12:32:16.756Z,31.80
2019-05-26T12:34:48.328Z,31.70
2019-05-26T12:37:19.788Z,30.00
2019-05-26T12:39:51.079Z,29.70
2019-05-26T12:42:21.727Z,31.30
2019-05-26T12:44:52.666Z,32.00
2019-05-26T12:47:23.278Z,31.80
2019-05-26T12:49:54.330Z,32.20
2019-05-26T12:52:24.967Z,33.10
2019-05-26T12:54:56.017Z,32.70
2019-05-26T12:57:26.640Z,32.60
2019-05-26T12:59:57.584Z,31.20
2019-05-26T13:02:28.911Z,30.60
2019-05-26T13:04:59.965Z,30.60
2019-05-26T13:07:30.919Z,31.10
2019-05-26T13:10:01.751Z,30.50
2019-05-26T13:12:32.896Z,31.10
2019-05-26T13:15:06.139Z,29.40
2019-05-26T13:17:36.951Z,29.30
2019-05-26T13:20:08.638Z,27.90
2019-05-26T13:22:40.902Z,27.70
2019-05-26T13:25:13.048Z,28.70
2019-05-26T13:27:44.333Z,30.00
2019-05-26T13:30:18.154Z,30.40
2019-05-26T13:32:53.534Z,30.20
2019-05-26T13:35:25.316Z,31.60
2019-05-26T13:37:56.283Z,30.60
2019-05-26T13:40:29.710Z,30.00
2019-05-26T13:43:01.350Z,31.50
2019-05-26T13:45:34.081Z,33.10
2019-05-26T13:48:04.979Z,33.70
2019-05-26T13:50:35.602Z,34.30
2019-05-26T13:53:06.067Z,32.50
2019-05-26T13:55:37.108Z,33.10
2019-05-26T13:58:08.105Z,33.40
2019-05-26T14:00:39.915Z,33.00
2019-05-26T14:03:10.700Z,33.00
2019-05-26T14:05:41.765Z,33.50
2019-05-26T14:08:14.075Z,32.70
2019-05-26T14:10:46.663Z,32.80
2019-05-26T14:13:18.310Z,33.70
2019-05-26T14:15:50.105Z,33.80
2019-05-26T14:18:22.317Z,34.10
2019-05-26T14:20:53.329Z,33.20
2019-05-26T14:23:24.276Z,30.70
2019-05-26T14:25:57.483Z,30.50
2019-05-26T14:28:28.233Z,31.40
2019-05-26T14:31:00.610Z,32.10
2019-05-26T14:33:34.701Z,33.00
2019-05-26T14:36:06.452Z,33.20
2019-05-26T14:38:43.053Z,33.40
2019-05-26T14:41:11.802Z,32.90
2019-05-26T14:43:43.262Z,31.70
2019-05-26T14:46:15.075Z,31.40
2019-05-26T14:48:46.181Z,32.40
2019-05-26T14:51:16.867Z,31.70
2019-05-26T14:53:48.108Z,30.50
2019-05-26T14:56:18.813Z,29.00
2019-05-26T14:58:49.809Z,27.70
2019-05-26T15:01:20.936Z,26.80
2019-05-26T15:03:52.079Z,25.30
2019-05-26T15:06:22.769Z,24.80
2019-05-26T15:08:53.873Z,24.60
2019-05-26T15:11:24.887Z,24.30
2019-05-26T15:13:56.571Z,24.10
2019-05-26T15:16:28.066Z,24.00
2019-05-26T15:18:58.708Z,23.90
2019-05-26T15:21:29.621Z,23.20
2019-05-26T15:24:01.535Z,22.70
2019-05-26T15:26:32.559Z,22.60
2019-05-26T15:29:03.584Z,22.60
2019-05-26T15:31:34.939Z,22.70
2019-05-26T15:34:06.146Z,22.90
2019-05-26T15:36:37.683Z,22.80
2019-05-26T15:39:09.338Z,23.00
2019-05-26T15:41:41.292Z,23.30
2019-05-26T15:44:12.017Z,23.40
2019-05-26T15:46:43.249Z,23.40
2019-05-26T15:49:14.291Z,23.40
2019-05-26T15:51:44.977Z,23.40
2019-05-26T15:54:16.043Z,23.40
2019-05-26T15:56:47.520Z,23.50
2019-05-26T15:59:18.135Z,23.60
2019-05-26T16:01:49.303Z,23.10
2019-05-26T16:04:19.914Z,22.70
2019-05-26T16:06:50.633Z,22.90
2019-05-26T16:09:21.700Z,23.10
2019-05-26T16:11:52.326Z,23.30
2019-05-26T16:14:23.369Z,23.30
2019-05-26T16:16:54.402Z,23.50
2019-05-26T16:19:25.131Z,23.50
2019-05-26T16:21:56.190Z,23.60
2019-05-26T16:24:27.074Z,23.50
2019-05-26T16:27:00.546Z,23.30
2019-05-26T16:29:30.015Z,23.10
2019-05-26T16:32:00.966Z,23.10
2019-05-26T16:34:31.295Z,23.10
2019-05-26T16:37:02.855Z,23.10
2019-05-26T16:39:37.100Z,22.80
2019-05-26T16:42:06.659Z,22.70
2019-05-26T16:44:37.697Z,22.60
2019-05-26T16:47:08.270Z,22.30
2019-05-26T16:49:39.031Z,22.00
2019-05-26T16:52:09.675Z,22.00
2019-05-26T16:54:40.339Z,21.60
2019-05-26T16:57:11.262Z,21.30
2019-05-26T16:59:42.610Z,21.20
2019-05-26T17:02:15.495Z,20.90
2019-05-26T17:04:46.246Z,20.80
2019-05-26T17:07:17.298Z,20.80
2019-05-26T17:09:48.788Z,20.60
2019-05-26T17:12:20.182Z,20.50
2019-05-26T17:14:50.901Z,20.40
2019-05-26T17:17:23.789Z,20.40
2019-05-26T17:19:54.519Z,20.30
2019-05-26T17:22:25.657Z,20.10
2019-05-26T17:24:59.865Z,20.00
2019-05-26T17:27:29.475Z,19.90
2019-05-26T17:30:00.846Z,19.80
2019-05-26T17:32:32.349Z,19.70
2019-05-26T17:35:03.301Z,19.50
2019-05-26T17:37:34.224Z,19.40
2019-05-26T17:40:05.829Z,19.30
2019-05-26T17:42:36.427Z,19.20
2019-05-26T17:45:08.400Z,19.00
2019-05-26T17:47:38.985Z,18.90
2019-05-26T17:50:09.939Z,19.10
2019-05-26T17:52:40.551Z,19.60
2019-05-26T17:55:11.853Z,20.20
2019-05-26T17:57:42.425Z,20.60
2019-05-26T18:00:15.291Z,20.90
2019-05-26T18:02:46.707Z,21.10
2019-05-26T18:05:18.072Z,21.20
2019-05-26T18:07:48.732Z,21.10
2019-05-26T18:10:19.910Z,20.60
2019-05-26T18:12:51.132Z,20.30
2019-05-26T18:15:22.002Z,19.80
2019-05-26T18:17:53.211Z,19.40
2019-05-26T18:20:24.197Z,19.10
2019-05-26T18:22:55.370Z,18.90
2019-05-26T18:25:25.981Z,18.70
2019-05-26T18:27:56.958Z,18.60
2019-05-26T18:30:27.911Z,18.50
2019-05-26T18:32:58.527Z,18.20
2019-05-26T18:35:29.077Z,18.00
2019-05-26T18:37:59.766Z,17.70
2019-05-26T18:40:30.494Z,17.40
2019-05-26T18:43:02.112Z,17.10
2019-05-26T18:45:32.794Z,16.90
2019-05-26T18:48:03.975Z,16.70
2019-05-26T18:50:35.156Z,16.40
2019-05-26T18:53:06.745Z,16.20
2019-05-26T18:55:37.256Z,16.10
2019-05-26T18:58:08.021Z,15.90
2019-05-26T19:00:38.822Z,15.80
2019-05-26T19:03:09.844Z,15.70
2019-05-26T19:05:40.152Z,15.50
2019-05-26T19:08:15.013Z,15.40
2019-05-26T19:10:46.056Z,15.20
2019-05-26T19:13:16.688Z,15.00
2019-05-26T19:15:47.322Z,15.00
2019-05-26T19:18:20.271Z,14.80
2019-05-26T19:20:51.237Z,14.80
2019-05-26T19:23:22.292Z,14.70
2019-05-26T19:25:53.509Z,14.60
2019-05-26T19:28:26.472Z,14.50
2019-05-26T19:30:57.455Z,14.40
2019-05-26T19:33:28.498Z,14.30
2019-05-26T19:35:58.817Z,14.30
2019-05-26T19:38:29.448Z,14.20
2019-05-26T19:41:00.389Z,14.10
2019-05-26T19:43:31.734Z,14.00
2019-05-26T19:46:02.774Z,13.90
2019-05-26T19:48:38.843Z,13.80
2019-05-26T19:51:09.575Z,13.70
2019-05-26T19:53:46.049Z,13.70
2019-05-26T19:56:19.392Z,13.60
2019-05-26T19:58:50.481Z,13.60
2019-05-26T20:01:21.886Z,13.50
2019-05-26T20:03:53.465Z,13.50
2019-05-26T20:06:35.731Z,13.40
2019-05-26T20:09:09.935Z,13.30
2019-05-26T20:11:40.821Z,13.20
2019-05-26T20:14:12.267Z,13.30
2019-05-26T20:16:43.617Z,13.20
2019-05-26T20:19:14.271Z,13.20
2019-05-26T20:21:47.634Z,13.10
2019-05-26T20:24:19.089Z,13.00
2019-05-26T20:26:50.968Z,13.00
2019-05-26T20:29:22.577Z,12.90
2019-05-26T20:31:54.815Z,12.80
2019-05-26T20:34:27.109Z,12.80
2019-05-26T20:36:58.537Z,12.70
2019-05-26T20:39:30.294Z,12.60
2019-05-26T20:42:01.825Z,12.60
2019-05-26T20:44:36.668Z,12.60
2019-05-26T20:47:10.165Z,12.60
2019-05-26T20:49:48.216Z,12.60
2019-05-26T20:52:20.093Z,12.50
2019-05-26T20:54:51.478Z,12.50
2019-05-26T20:57:23.202Z,12.40
2019-05-26T20:59:54.536Z,12.40
2019-05-26T21:02:32.781Z,12.30
2019-05-26T21:05:03.187Z,12.30
2019-05-26T21:07:35.146Z,12.20
2019-05-26T21:10:07.271Z,12.10
2019-05-26T21:12:38.256Z,12.10
2019-05-26T21:15:11.942Z,12.00
2019-05-26T21:17:45.254Z,12.00
2019-05-26T21:20:16.791Z,12.00
2019-05-26T21:22:48.643Z,12.00
2019-05-26T21:25:21.322Z,11.90
2019-05-26T21:27:57.270Z,11.90
2019-05-26T21:30:28.671Z,11.90
2019-05-26T21:33:02.206Z,11.80
2019-05-26T21:35:34.090Z,11.80
2019-05-26T21:38:05.218Z,11.80
2019-05-26T21:40:35.586Z,11.80
2019-05-26T21:43:06.662Z,11.70
2019-05-26T21:45:42.181Z,11.60
2019-05-26T21:48:13.138Z,11.60
2019-05-26T21:50:51.725Z,11.60
2019-05-26T21:53:22.987Z,11.70
2019-05-26T21:55:54.858Z,11.60
2019-05-26T21:58:25.877Z,11.60
2019-05-26T22:00:57.576Z,11.60
2019-05-26T22:03:33.088Z,11.50
2019-05-26T22:06:05.130Z,11.50
2019-05-26T22:08:37.761Z,11.40
2019-05-26T22:11:08.859Z,11.40
2019-05-26T22:13:44.171Z,11.40
2019-05-26T22:16:18.251Z,11.40
2019-05-26T22:18:53.388Z,11.40
2019-05-26T22:21:25.017Z,11.30
2019-05-26T22:23:59.247Z,11.30
2019-05-26T22:26:30.826Z,11.30
2019-05-26T22:29:02.062Z,11.30
2019-05-26T22:31:33.438Z,11.30
2019-05-26T22:34:24.907Z,11.40
2019-05-26T22:36:56.020Z,11.30
2019-05-26T22:39:27.610Z,11.30
2019-05-26T22:41:58.917Z,11.30
2019-05-26T22:44:30.584Z,11.40
2019-05-26T22:47:01.524Z,11.30
2019-05-26T22:49:32.434Z,11.40
2019-05-26T22:52:03.922Z,11.40
2019-05-26T22:54:35.522Z,11.50
2019-05-26T22:57:08.590Z,11.40
2019-05-26T22:59:48.866Z,11.40
2019-05-26T23:02:21.180Z,11.30
2019-05-26T23:04:52.317Z,11.50
2019-05-26T23:07:29.499Z,11.50
2019-05-26T23:10:02.796Z,11.60
2019-05-26T23:12:40.863Z,11.70
2019-05-26T23:15:12.090Z,11.80
2019-05-26T23:17:43.630Z,11.80
2019-05-26T23:20:16.861Z,11.80
2019-05-26T23:22:48.525Z,11.90
2019-05-26T23:25:19.103Z,12.00
2019-05-26T23:27:50.909Z,12.10
2019-05-26T23:30:22.298Z,12.10
2019-05-26T23:32:53.379Z,12.10
2019-05-26T23:35:24.899Z,12.10
2019-05-26T23:37:56.096Z,12.20
2019-05-26T23:40:27.502Z,12.20
2019-05-26T23:42:58.239Z,12.20
2019-05-26T23:45:28.944Z,12.20
2019-05-26T23:48:00.030Z,12.30
2019-05-26T23:50:40.232Z,12.30
2019-05-26T23:53:14.875Z,12.40
2019-05-26T23:55:46.160Z,12.40
2019-05-26T23:58:17.437Z,12.50
